Annandale, New York
Current Conditions -  °F | °C
As of 12:40 PM on Tuesday 21 Oct 2014 (Local Time) from KPOU Reporting Station
Overcast Overcast  
Wind Chill: 53°   Ceiling: 600
Heat Index: 53°   Visibility: 10mi
Dew Point: 49°   Wind: 6mph
Humidity: 86%   Direction: 360°N
Pressure: 29.9"   Gusts: NA
Location:  42.0124°N, 73.8998°W
Report Text: KPOU 211640Z 36005KT 10SM BKN006 OVC050 12/09 A2990 RMK AO2 T01170094
Loading
Personal Weather Stations






























Interactive Weather Map
Tropical Storm Tracking
New forecast layout! Learn more

10-Day Weather Forecast

Advertisements
Track Severe Weather on mobile